createdAt,value
2019-06-26T00:00:09.148Z,60.90
2019-06-26T00:02:42.929Z,61.69
2019-06-26T00:05:15.797Z,62.29
2019-06-26T00:07:48.468Z,62.29
2019-06-26T00:10:21.247Z,54.96
2019-06-26T00:12:55.026Z,52.86
2019-06-26T00:15:27.660Z,54.66
2019-06-26T00:18:00.418Z,56.57
2019-06-26T00:20:33.266Z,57.45
2019-06-26T00:23:05.606Z,58.49
2019-06-26T00:25:38.139Z,59.57
2019-06-26T00:28:11.022Z,60.25
2019-06-26T00:30:44.849Z,61.14
2019-06-26T00:33:18.635Z,61.43
2019-06-26T00:35:51.554Z,62.40
2019-06-26T00:38:23.810Z,62.18
2019-06-26T00:40:56.746Z,55.00
2019-06-26T00:43:41.970Z,52.97
2019-06-26T00:46:03.717Z,54.72
2019-06-26T00:48:37.356Z,56.47
2019-06-26T00:51:10.164Z,57.75
2019-06-26T00:53:43.152Z,58.70
2019-06-26T00:56:15.768Z,59.67
2019-06-26T00:58:48.010Z,60.53
2019-06-26T01:01:20.318Z,61.33
2019-06-26T01:03:54.728Z,62.10
2019-06-26T01:06:45.316Z,62.84
2019-06-26T01:09:17.556Z,61.86
2019-06-26T01:11:49.968Z,54.62
2019-06-26T01:14:22.730Z,53.46
2019-06-26T01:16:55.317Z,55.09
2019-06-26T01:19:28.071Z,56.84
2019-06-26T01:22:01.067Z,58.22
2019-06-26T01:24:33.866Z,59.47
2019-06-26T01:27:06.369Z,60.58
2019-06-26T01:29:39.316Z,61.44
2019-06-26T01:32:12.076Z,62.40
2019-06-26T01:34:46.903Z,62.07
2019-06-26T01:37:19.514Z,54.66
2019-06-26T01:39:52.271Z,52.96
2019-06-26T01:42:24.876Z,54.82
2019-06-26T01:44:57.466Z,56.72
2019-06-26T01:47:29.965Z,58.05
2019-06-26T01:50:02.882Z,59.28
2019-06-26T01:52:35.674Z,60.32
2019-06-26T01:55:12.140Z,61.17
2019-06-26T01:57:45.017Z,61.83
2019-06-26T02:00:18.087Z,62.71
2019-06-26T02:02:50.912Z,62.93
2019-06-26T02:05:24.896Z,55.57
2019-06-26T02:07:57.499Z,53.84
2019-06-26T02:10:29.869Z,55.82
2019-06-26T02:13:02.281Z,57.69
2019-06-26T02:15:35.204Z,59.02
2019-06-26T02:18:09.883Z,60.29
2019-06-26T02:20:42.708Z,61.31
2019-06-26T02:23:15.342Z,62.13
2019-06-26T02:25:47.688Z,62.94
2019-06-26T02:28:20.205Z,62.57
2019-06-26T02:30:53.120Z,55.31
2019-06-26T02:33:26.959Z,53.48
2019-06-26T02:35:59.808Z,55.86
2019-06-26T02:38:32.422Z,57.90
2019-06-26T02:41:06.460Z,59.27
2019-06-26T02:43:39.394Z,60.33
2019-06-26T02:46:11.930Z,61.63
2019-06-26T02:48:44.739Z,62.35
2019-06-26T02:51:17.729Z,62.44
2019-06-26T02:53:50.345Z,55.52
2019-06-26T02:56:22.688Z,54.03
2019-06-26T02:58:54.997Z,56.20
2019-06-26T03:01:27.842Z,58.01
2019-06-26T03:04:00.476Z,59.58
2019-06-26T03:06:33.403Z,60.66
2019-06-26T03:09:08.078Z,61.77
2019-06-26T03:11:40.818Z,62.71
2019-06-26T03:14:13.692Z,62.27
2019-06-26T03:16:46.232Z,54.93
2019-06-26T03:19:18.632Z,53.19
2019-06-26T03:21:50.990Z,55.25
2019-06-26T03:24:23.705Z,57.15
2019-06-26T03:26:56.469Z,58.68
2019-06-26T03:29:29.083Z,59.82
2019-06-26T03:32:01.824Z,61.02
2019-06-26T03:34:34.819Z,61.75
2019-06-26T03:37:07.809Z,62.68
2019-06-26T03:39:40.821Z,62.01
2019-06-26T03:42:13.770Z,54.58
2019-06-26T03:44:46.393Z,54.38
2019-06-26T03:47:18.746Z,56.45
2019-06-26T03:49:51.618Z,58.04
2019-06-26T03:52:24.490Z,59.42
2019-06-26T03:54:57.340Z,60.85
2019-06-26T03:57:29.903Z,61.69
2019-06-26T04:00:02.510Z,62.35
2019-06-26T04:02:35.053Z,61.96
2019-06-26T04:05:10.044Z,54.90
2019-06-26T04:07:43.031Z,53.28
2019-06-26T04:10:15.990Z,55.08
2019-06-26T04:12:48.548Z,56.76
2019-06-26T04:15:21.077Z,57.95
2019-06-26T04:17:53.626Z,59.02
2019-06-26T04:20:27.143Z,60.06
2019-06-26T04:22:59.822Z,60.85
2019-06-26T04:25:32.345Z,61.70
2019-06-26T04:28:06.441Z,62.29
2019-06-26T04:30:38.569Z,60.98
2019-06-26T04:33:11.253Z,54.23
2019-06-26T04:35:43.581Z,53.09
2019-06-26T04:38:16.262Z,54.71
2019-06-26T04:40:48.687Z,56.58
2019-06-26T04:43:20.948Z,57.72
2019-06-26T04:45:57.993Z,58.83
2019-06-26T04:48:27.509Z,59.37
2019-06-26T04:50:59.825Z,60.21
2019-06-26T04:53:32.083Z,60.74
2019-06-26T04:56:04.974Z,61.25
2019-06-26T04:58:37.211Z,61.77
2019-06-26T05:01:09.548Z,62.07
2019-06-26T05:03:42.042Z,62.28
2019-06-26T05:06:14.762Z,62.73
2019-06-26T05:08:47.111Z,58.42
2019-06-26T05:11:19.439Z,55.46
2019-06-26T05:13:51.684Z,56.36
2019-06-26T05:16:24.005Z,57.25
2019-06-26T05:18:56.505Z,58.07
2019-06-26T05:21:29.318Z,58.81
2019-06-26T05:24:01.667Z,58.89
2019-06-26T05:26:34.177Z,59.51
2019-06-26T05:29:06.543Z,59.51
2019-06-26T05:31:39.305Z,59.88
2019-06-26T05:34:11.930Z,59.87
2019-06-26T05:36:44.651Z,60.04
2019-06-26T05:39:16.902Z,60.19
2019-06-26T05:41:49.611Z,60.20
2019-06-26T05:44:21.857Z,60.27
2019-06-26T05:46:55.282Z,60.23
2019-06-26T05:49:27.789Z,60.16
2019-06-26T05:52:02.182Z,60.39
2019-06-26T05:54:34.636Z,59.98
2019-06-26T05:57:07.198Z,59.58
2019-06-26T05:59:39.692Z,59.49
2019-06-26T06:02:12.450Z,58.99
2019-06-26T06:04:44.742Z,58.90
2019-06-26T06:07:17.424Z,58.99
2019-06-26T06:09:50.101Z,58.55
2019-06-26T06:12:22.477Z,58.84
2019-06-26T06:14:54.874Z,58.43
2019-06-26T06:17:27.208Z,58.36
2019-06-26T06:19:59.439Z,57.91
2019-06-26T06:22:32.254Z,57.50
2019-06-26T06:25:05.112Z,56.99
2019-06-26T06:27:37.936Z,56.88
2019-06-26T06:30:11.192Z,56.78
2019-06-26T06:32:43.913Z,56.18
2019-06-26T06:35:16.506Z,55.90
2019-06-26T06:37:49.375Z,55.68
2019-06-26T06:40:24.203Z,55.74
2019-06-26T06:42:57.244Z,55.74
2019-06-26T06:45:30.098Z,55.35
2019-06-26T06:48:03.168Z,54.87
2019-06-26T06:50:35.614Z,54.62
2019-06-26T06:53:08.417Z,54.14
2019-06-26T06:55:40.980Z,53.81
2019-06-26T06:58:13.388Z,53.41
2019-06-26T07:00:45.655Z,53.29
2019-06-26T07:03:18.520Z,53.17
2019-06-26T07:05:51.204Z,52.54
2019-06-26T07:08:24.046Z,52.44
2019-06-26T07:10:57.126Z,52.99
2019-06-26T07:13:30.168Z,52.29
2019-06-26T07:16:03.221Z,51.46
2019-06-26T07:18:35.742Z,51.42
2019-06-26T07:21:07.985Z,50.81
2019-06-26T07:23:40.756Z,50.61
2019-06-26T07:26:13.575Z,49.78
2019-06-26T07:28:46.398Z,49.05
2019-06-26T07:31:18.957Z,49.44
2019-06-26T07:33:55.422Z,48.33
2019-06-26T07:36:25.935Z,48.27
2019-06-26T07:39:00.189Z,48.22
2019-06-26T07:41:32.447Z,47.99
2019-06-26T07:44:05.391Z,48.05
2019-06-26T07:46:39.808Z,47.83
2019-06-26T07:49:12.587Z,46.52
2019-06-26T07:51:44.842Z,45.56
2019-06-26T07:54:17.743Z,46.24
2019-06-26T07:56:50.440Z,45.93
2019-06-26T07:59:22.754Z,45.75
2019-06-26T08:01:55.001Z,45.51
2019-06-26T08:04:28.227Z,45.30
2019-06-26T08:07:00.751Z,43.65
2019-06-26T08:09:33.092Z,42.97
2019-06-26T08:12:05.767Z,43.16
2019-06-26T08:14:38.081Z,42.26
2019-06-26T08:17:10.640Z,42.55
2019-06-26T08:19:43.407Z,42.07
2019-06-26T08:22:15.657Z,42.01
2019-06-26T08:24:48.283Z,40.58
2019-06-26T08:27:20.547Z,39.36
2019-06-26T08:29:53.301Z,39.22
2019-06-26T08:32:26.208Z,39.26
2019-06-26T08:34:58.612Z,38.88
2019-06-26T08:37:31.100Z,38.81
2019-06-26T08:40:04.129Z,38.64
2019-06-26T08:42:37.728Z,38.67
2019-06-26T08:45:12.064Z,38.25
2019-06-26T08:47:44.771Z,38.58
2019-06-26T08:50:17.843Z,37.29
2019-06-26T08:52:50.956Z,35.88
2019-06-26T08:55:23.378Z,35.30
2019-06-26T08:57:56.160Z,35.80
2019-06-26T09:00:28.475Z,36.20
2019-06-26T09:03:01.553Z,34.88
2019-06-26T09:05:47.701Z,34.71
2019-06-26T09:08:08.843Z,34.92
2019-06-26T09:10:44.725Z,35.22
2019-06-26T09:13:15.629Z,34.86
2019-06-26T09:15:49.896Z,34.49
2019-06-26T09:18:34.885Z,34.64
2019-06-26T09:20:56.321Z,34.46
2019-06-26T09:23:31.022Z,33.85
2019-06-26T09:26:02.566Z,33.78
2019-06-26T09:28:34.912Z,33.73
2019-06-26T09:31:07.464Z,32.82
2019-06-26T09:33:39.812Z,33.10
2019-06-26T09:36:12.226Z,32.41
2019-06-26T09:38:44.706Z,32.49
2019-06-26T09:41:17.647Z,32.20
2019-06-26T09:43:49.901Z,32.59
2019-06-26T09:46:22.545Z,32.50
2019-06-26T09:48:54.984Z,32.10
2019-06-26T09:51:27.506Z,32.43
2019-06-26T09:54:00.282Z,32.56
2019-06-26T09:56:33.896Z,32.92
2019-06-26T09:59:06.533Z,32.14
2019-06-26T10:01:39.399Z,32.07
2019-06-26T10:04:12.121Z,31.95
2019-06-26T10:06:44.845Z,32.31
2019-06-26T10:09:17.529Z,31.79
2019-06-26T10:11:49.944Z,31.96
2019-06-26T10:14:22.191Z,31.67
2019-06-26T10:16:55.084Z,32.27
2019-06-26T10:19:28.141Z,32.19
2019-06-26T10:22:00.835Z,32.25
2019-06-26T10:24:33.059Z,31.78
2019-06-26T10:27:05.588Z,31.95
2019-06-26T10:29:37.930Z,31.81
2019-06-26T10:32:10.396Z,31.94
2019-06-26T10:34:43.354Z,31.84
2019-06-26T10:37:16.080Z,31.91
2019-06-26T10:39:49.501Z,31.32
2019-06-26T10:42:21.846Z,31.17
2019-06-26T10:44:54.055Z,31.55
2019-06-26T10:47:26.964Z,31.26
2019-06-26T10:49:59.608Z,30.88
2019-06-26T10:52:32.268Z,30.78
2019-06-26T10:55:10.640Z,30.55
2019-06-26T10:57:43.556Z,30.86
2019-06-26T11:00:16.499Z,30.21
2019-06-26T11:02:48.907Z,30.70
2019-06-26T11:05:22.444Z,29.80
2019-06-26T11:07:56.424Z,29.34
2019-06-26T11:10:29.112Z,29.49
2019-06-26T11:13:01.879Z,29.22
2019-06-26T11:15:34.872Z,29.83
2019-06-26T11:18:07.554Z,29.92
2019-06-26T11:20:39.904Z,28.35
2019-06-26T11:23:12.620Z,26.55
2019-06-26T11:25:44.898Z,27.19
2019-06-26T11:28:17.673Z,27.20
2019-06-26T11:30:50.094Z,27.06
2019-06-26T11:33:22.526Z,26.75
2019-06-26T11:35:54.788Z,25.70
2019-06-26T11:38:27.095Z,24.36
2019-06-26T11:41:01.787Z,24.28
2019-06-26T11:43:34.308Z,24.40
2019-06-26T11:46:06.927Z,24.76
2019-06-26T11:48:39.605Z,24.12
2019-06-26T11:51:12.381Z,24.19
2019-06-26T11:53:45.168Z,24.01
2019-06-26T11:56:17.923Z,23.87
2019-06-26T11:58:52.025Z,23.61
2019-06-26T12:01:24.645Z,23.78
2019-06-26T12:03:58.453Z,23.96
2019-06-26T12:06:32.485Z,23.50
2019-06-26T12:09:06.775Z,23.43
2019-06-26T12:11:39.371Z,23.13
2019-06-26T12:14:12.561Z,23.07
2019-06-26T12:16:45.266Z,22.85
2019-06-26T12:19:19.890Z,23.12
2019-06-26T12:21:53.155Z,22.87
2019-06-26T12:24:26.738Z,22.12
2019-06-26T12:26:59.941Z,21.64
2019-06-26T12:29:33.153Z,21.85
2019-06-26T12:32:06.037Z,22.22
2019-06-26T12:34:40.212Z,22.49
2019-06-26T12:37:12.661Z,22.34
2019-06-26T12:39:45.106Z,22.15
2019-06-26T12:42:17.822Z,21.72
2019-06-26T12:44:50.126Z,21.18
2019-06-26T12:47:22.469Z,20.40
2019-06-26T12:49:54.865Z,19.89
2019-06-26T12:52:27.719Z,20.21
2019-06-26T12:55:01.745Z,20.12
2019-06-26T12:57:34.885Z,19.94
2019-06-26T13:00:11.093Z,19.96
2019-06-26T13:02:44.064Z,20.13
2019-06-26T13:05:17.324Z,19.78
2019-06-26T13:07:50.294Z,19.35
2019-06-26T13:10:24.190Z,19.19
2019-06-26T13:12:57.574Z,19.46
2019-06-26T13:15:30.427Z,19.14
2019-06-26T13:18:02.991Z,18.93
2019-06-26T13:20:51.590Z,18.83
2019-06-26T13:23:09.546Z,18.79
2019-06-26T13:25:43.241Z,18.90
2019-06-26T13:28:15.776Z,17.34
2019-06-26T13:30:48.658Z,15.91
2019-06-26T13:33:22.093Z,16.44
2019-06-26T13:35:54.887Z,16.68
2019-06-26T13:38:27.868Z,16.00
2019-06-26T13:41:00.879Z,16.64
2019-06-26T13:43:33.450Z,16.68
2019-06-26T13:46:06.191Z,16.76
2019-06-26T13:48:39.099Z,16.33
2019-06-26T13:51:11.499Z,16.24
2019-06-26T13:53:44.557Z,16.55
2019-06-26T13:56:17.192Z,16.23
2019-06-26T13:58:49.511Z,16.46
2019-06-26T14:01:23.128Z,16.48
2019-06-26T14:03:56.503Z,15.90
2019-06-26T14:06:29.010Z,15.76
2019-06-26T14:09:01.483Z,15.73
2019-06-26T14:11:35.668Z,15.87
2019-06-26T14:14:08.023Z,16.09
2019-06-26T14:16:40.692Z,16.12
2019-06-26T14:19:13.358Z,16.36
2019-06-26T14:21:45.758Z,16.42
2019-06-26T14:24:18.355Z,16.63
2019-06-26T14:26:51.552Z,16.78
2019-06-26T14:29:24.326Z,16.81
2019-06-26T14:31:57.073Z,16.38
2019-06-26T14:34:31.211Z,16.45
2019-06-26T14:37:03.962Z,16.55
2019-06-26T14:39:36.303Z,16.12
2019-06-26T14:42:10.460Z,16.13
2019-06-26T14:44:42.898Z,16.18
2019-06-26T14:47:15.721Z,16.20
2019-06-26T14:49:48.271Z,15.87
2019-06-26T14:52:21.196Z,16.20
2019-06-26T14:54:54.053Z,16.38
2019-06-26T14:57:26.743Z,16.37
2019-06-26T14:59:59.516Z,16.45
2019-06-26T15:02:32.379Z,16.82
2019-06-26T15:05:06.912Z,16.99
2019-06-26T15:07:39.582Z,17.00
2019-06-26T15:10:12.231Z,17.25
2019-06-26T15:12:45.247Z,17.80
2019-06-26T15:15:19.098Z,17.12
2019-06-26T15:17:52.134Z,17.22
2019-06-26T15:20:25.127Z,17.32
2019-06-26T15:22:58.843Z,16.77
2019-06-26T15:25:32.017Z,17.13
2019-06-26T15:28:05.037Z,17.09
2019-06-26T15:30:37.795Z,17.13
2019-06-26T15:33:10.530Z,17.12
2019-06-26T15:35:43.341Z,17.17
2019-06-26T15:38:15.934Z,17.13
2019-06-26T15:40:48.274Z,17.21
2019-06-26T15:43:21.066Z,17.55
2019-06-26T15:45:54.041Z,17.14
2019-06-26T15:48:27.034Z,17.46
2019-06-26T15:50:59.578Z,17.63
2019-06-26T15:53:31.967Z,17.83
2019-06-26T15:56:04.297Z,17.98
2019-06-26T15:58:37.126Z,18.05
2019-06-26T16:01:10.104Z,18.34
2019-06-26T16:03:42.699Z,18.59
2019-06-26T16:06:15.471Z,18.41
2019-06-26T16:08:48.562Z,18.44
2019-06-26T16:11:21.446Z,18.43
2019-06-26T16:13:54.034Z,18.70
2019-06-26T16:16:26.361Z,18.26
2019-06-26T16:19:03.321Z,18.44
2019-06-26T16:21:36.039Z,18.48
2019-06-26T16:24:08.835Z,18.46
2019-06-26T16:26:41.371Z,18.49
2019-06-26T16:29:14.493Z,18.46
2019-06-26T16:31:47.025Z,18.51
2019-06-26T16:34:19.426Z,18.83
2019-06-26T16:36:52.963Z,18.80
2019-06-26T16:39:25.921Z,18.47
2019-06-26T16:41:58.353Z,18.52
2019-06-26T16:44:32.062Z,18.73
2019-06-26T16:47:04.614Z,19.24
2019-06-26T16:49:37.119Z,19.12
2019-06-26T16:52:09.877Z,19.02
2019-06-26T16:54:42.919Z,19.10
2019-06-26T16:57:15.415Z,18.76
2019-06-26T16:59:48.176Z,19.04
2019-06-26T17:02:21.155Z,19.25
2019-06-26T17:04:54.015Z,19.65
2019-06-26T17:07:26.723Z,20.24
2019-06-26T17:09:59.510Z,20.65
2019-06-26T17:12:32.057Z,20.67
2019-06-26T17:15:06.370Z,21.21
2019-06-26T17:17:39.286Z,21.14
2019-06-26T17:20:13.808Z,21.64
2019-06-26T17:22:46.748Z,22.14
2019-06-26T17:25:19.201Z,22.67
2019-06-26T17:27:51.842Z,23.24
2019-06-26T17:30:25.606Z,23.69
2019-06-26T17:32:58.233Z,24.00
2019-06-26T17:35:30.851Z,24.57
2019-06-26T17:38:03.546Z,24.77
2019-06-26T17:40:35.800Z,25.22
2019-06-26T17:43:12.461Z,25.30
2019-06-26T17:45:42.890Z,25.52
2019-06-26T17:48:15.545Z,26.08
2019-06-26T17:50:48.068Z,26.47
2019-06-26T17:53:22.035Z,26.84
2019-06-26T17:55:54.592Z,27.47
2019-06-26T17:58:27.488Z,28.04
2019-06-26T18:01:00.116Z,28.35
2019-06-26T18:03:32.898Z,28.73
2019-06-26T18:06:05.825Z,29.12
2019-06-26T18:08:38.063Z,29.71
2019-06-26T18:11:11.521Z,30.15
2019-06-26T18:13:43.759Z,30.84
2019-06-26T18:16:16.081Z,31.38
2019-06-26T18:18:48.320Z,31.81
2019-06-26T18:21:20.900Z,32.37
2019-06-26T18:23:53.282Z,32.94
2019-06-26T18:26:25.921Z,33.31
2019-06-26T18:28:58.421Z,33.27
2019-06-26T18:31:31.691Z,33.96
2019-06-26T18:34:04.530Z,34.82
2019-06-26T18:36:37.086Z,34.80
2019-06-26T18:39:10.244Z,35.64
2019-06-26T18:41:43.078Z,34.78
2019-06-26T18:44:15.339Z,34.91
2019-06-26T18:46:47.642Z,35.16
2019-06-26T18:49:21.292Z,35.28
2019-06-26T18:51:53.594Z,35.68
2019-06-26T18:54:26.276Z,36.04
2019-06-26T18:56:59.098Z,36.32
2019-06-26T18:59:31.354Z,36.69
2019-06-26T19:02:03.766Z,36.99
2019-06-26T19:04:37.000Z,37.09
2019-06-26T19:07:09.724Z,37.53
2019-06-26T19:09:42.438Z,37.84
2019-06-26T19:12:15.190Z,37.90
2019-06-26T19:14:48.676Z,38.31
2019-06-26T19:17:21.084Z,38.51
2019-06-26T19:19:53.827Z,38.68
2019-06-26T19:22:26.800Z,39.11
2019-06-26T19:24:59.442Z,39.34
2019-06-26T19:27:32.584Z,39.57
2019-06-26T19:30:07.940Z,39.91
2019-06-26T19:32:40.758Z,40.50
2019-06-26T19:35:20.613Z,40.77
2019-06-26T19:37:47.554Z,40.83
2019-06-26T19:40:23.638Z,41.07
2019-06-26T19:42:54.453Z,41.28
2019-06-26T19:45:27.806Z,41.78
2019-06-26T19:48:00.787Z,41.74
2019-06-26T19:50:33.241Z,42.24
2019-06-26T19:53:06.244Z,42.62
2019-06-26T19:55:39.138Z,42.64
2019-06-26T19:58:12.113Z,42.97
2019-06-26T20:00:45.004Z,43.51
2019-06-26T20:03:17.697Z,43.93
2019-06-26T20:05:50.719Z,43.56
2019-06-26T20:08:23.409Z,44.34
2019-06-26T20:10:56.223Z,44.28
2019-06-26T20:13:28.733Z,44.57
2019-06-26T20:16:01.393Z,45.03
2019-06-26T20:18:34.171Z,45.00
2019-06-26T20:21:06.705Z,45.51
2019-06-26T20:23:39.331Z,45.78
2019-06-26T20:26:12.195Z,46.05
2019-06-26T20:28:44.793Z,45.95
2019-06-26T20:31:17.231Z,46.38
2019-06-26T20:33:50.401Z,46.36
2019-06-26T20:36:23.433Z,46.59
2019-06-26T20:38:55.831Z,46.97
2019-06-26T20:41:28.580Z,47.22
2019-06-26T20:44:00.974Z,47.71
2019-06-26T20:46:33.673Z,48.20
2019-06-26T20:49:06.833Z,47.91
2019-06-26T20:51:39.816Z,48.21
2019-06-26T20:54:12.420Z,48.71
2019-06-26T20:56:45.181Z,48.80
2019-06-26T20:59:17.797Z,48.91
2019-06-26T21:01:50.493Z,49.05
2019-06-26T21:04:22.990Z,49.73
2019-06-26T21:06:55.274Z,49.84
2019-06-26T21:09:27.766Z,49.56
2019-06-26T21:12:00.345Z,49.54
2019-06-26T21:14:32.876Z,49.36
2019-06-26T21:17:05.364Z,49.81
2019-06-26T21:19:38.225Z,49.86
2019-06-26T21:22:11.140Z,50.32
2019-06-26T21:24:43.458Z,50.01
2019-06-26T21:27:16.001Z,50.23
2019-06-26T21:29:48.289Z,50.27
2019-06-26T21:32:20.516Z,50.42
2019-06-26T21:34:53.155Z,50.52
2019-06-26T21:37:25.947Z,50.58
2019-06-26T21:39:59.092Z,50.21
2019-06-26T21:42:31.513Z,50.74
2019-06-26T21:45:05.219Z,51.20
2019-06-26T21:47:37.936Z,50.93
2019-06-26T21:50:10.946Z,50.99
2019-06-26T21:52:43.706Z,51.44
2019-06-26T21:55:30.189Z,51.87
2019-06-26T21:58:09.852Z,52.00
2019-06-26T22:01:00.066Z,52.23
2019-06-26T22:03:50.154Z,53.10
2019-06-26T22:06:28.358Z,52.72
2019-06-26T22:09:19.219Z,52.56
2019-06-26T22:11:52.403Z,53.09
2019-06-26T22:14:25.016Z,54.00
2019-06-26T22:16:57.637Z,53.71
2019-06-26T22:19:29.891Z,53.98
2019-06-26T22:22:02.653Z,53.92
2019-06-26T22:24:35.137Z,54.84
2019-06-26T22:27:07.920Z,54.45
2019-06-26T22:29:40.396Z,55.11
2019-06-26T22:32:12.675Z,54.93
2019-06-26T22:34:48.098Z,55.01
2019-06-26T22:37:19.233Z,55.48
2019-06-26T22:39:51.712Z,55.52
2019-06-26T22:42:24.294Z,55.33
2019-06-26T22:44:57.046Z,55.44
2019-06-26T22:47:29.653Z,55.43
2019-06-26T22:50:02.177Z,55.27
2019-06-26T22:52:35.077Z,55.62
2019-06-26T22:55:08.496Z,55.60
2019-06-26T22:57:41.585Z,55.84
2019-06-26T23:00:16.525Z,56.13
2019-06-26T23:02:49.050Z,55.71
2019-06-26T23:05:22.192Z,55.95
2019-06-26T23:07:55.071Z,56.33
2019-06-26T23:10:27.746Z,56.88
2019-06-26T23:13:00.486Z,57.11
2019-06-26T23:15:32.912Z,57.23
2019-06-26T23:18:05.301Z,57.59
2019-06-26T23:20:38.417Z,57.32
2019-06-26T23:23:10.915Z,57.03
2019-06-26T23:25:43.364Z,56.67
2019-06-26T23:28:16.505Z,56.25
2019-06-26T23:30:49.359Z,56.23
2019-06-26T23:33:21.746Z,56.14
2019-06-26T23:35:54.746Z,55.62
2019-06-26T23:38:27.737Z,55.33
2019-06-26T23:41:00.496Z,55.13
2019-06-26T23:43:33.291Z,54.88
2019-06-26T23:46:05.724Z,54.71
2019-06-26T23:48:38.486Z,54.95
2019-06-26T23:51:11.540Z,54.77
2019-06-26T23:53:44.835Z,54.73
2019-06-26T23:56:17.273Z,54.64
2019-06-26T23:58:49.660Z,54.81
